< < Back
Terminal Aerodrome Forecast


Current Version              Previous Versions:   1  2  3  4  5  6  7  8  9  

Terminal Aerodrome Forecast

533
FTUS42 KCAE 201400 AAA
TAFCAE
TAF AMD
KCAE 201425Z 2014/2112 VRB03KT P6SM SCT250
     FM201800 24006KT P6SM SCT035
     FM202300 VRB03KT P6SM SKC=

Latest METAR

191
SAUS80 KWBC 202200 RRA
MTRCAE
METAR KCAE 202156Z 24005KT 10SM SCT055 SCT200 23/09 A2998 RMK AO2 SLP151
T02330094


USA.gov is the U.S. government's official web portal to all federal, state and local government web resources and services.